createdAt,value
2018-04-09T00:01:32.750Z,55.24
2018-04-09T00:04:01.104Z,54.94
2018-04-09T00:06:29.431Z,55.14
2018-04-09T00:08:57.745Z,55.27
2018-04-09T00:11:26.265Z,55.34
2018-04-09T00:13:55.345Z,55.71
2018-04-09T00:16:23.920Z,55.81
2018-04-09T00:18:52.271Z,55.65
2018-04-09T00:21:20.576Z,55.54
2018-04-09T00:23:48.900Z,55.27
2018-04-09T00:26:17.988Z,54.90
2018-04-09T00:28:47.066Z,54.67
2018-04-09T00:31:15.406Z,54.33
2018-04-09T00:33:43.874Z,54.54
2018-04-09T00:36:12.208Z,54.49
2018-04-09T00:38:40.535Z,54.49
2018-04-09T00:41:08.910Z,54.25
2018-04-09T00:43:37.248Z,54.80
2018-04-09T00:46:05.564Z,54.65
2018-04-09T00:48:33.941Z,55.23
2018-04-09T00:51:02.293Z,55.16
2018-04-09T00:53:49.306Z,55.32
2018-04-09T00:56:18.404Z,55.91
2018-04-09T00:58:47.486Z,55.70
2018-04-09T01:01:15.855Z,55.71
2018-04-09T01:03:44.197Z,55.84
2018-04-09T01:06:12.547Z,55.70
2018-04-09T01:08:40.921Z,55.33
2018-04-09T01:11:10.006Z,55.42
2018-04-09T01:13:39.090Z,55.61
2018-04-09T01:16:07.990Z,55.52
2018-04-09T01:18:36.585Z,55.74
2018-04-09T01:21:05.679Z,56.04
2018-04-09T01:23:34.812Z,55.78
2018-04-09T01:26:03.178Z,55.99
2018-04-09T01:28:31.497Z,56.14
2018-04-09T01:30:59.862Z,56.66
2018-04-09T01:33:28.222Z,56.66
2018-04-09T01:35:56.568Z,56.86
2018-04-09T01:38:25.964Z,57.27
2018-04-09T01:40:54.317Z,57.15
2018-04-09T01:43:22.644Z,56.98
2018-04-09T01:45:51.007Z,56.49
2018-04-09T01:48:19.340Z,56.39
2018-04-09T01:50:47.669Z,56.15
2018-04-09T01:53:16.785Z,56.81
2018-04-09T01:55:45.115Z,56.72
2018-04-09T01:58:13.448Z,56.61
2018-04-09T02:00:42.050Z,56.59
2018-04-09T02:03:10.398Z,57.14
2018-04-09T02:05:38.918Z,57.08
2018-04-09T02:08:07.273Z,57.38
2018-04-09T02:10:35.616Z,57.31
2018-04-09T02:13:03.963Z,58.34
2018-04-09T02:15:32.344Z,57.84
2018-04-09T02:18:00.689Z,57.93
2018-04-09T02:20:29.025Z,57.87
2018-04-09T02:22:58.526Z,58.06
2018-04-09T02:25:27.657Z,57.39
2018-04-09T02:27:56.080Z,57.83
2018-04-09T02:30:24.472Z,58.41
2018-04-09T02:32:52.845Z,59.62
2018-04-09T02:35:21.161Z,59.20
2018-04-09T02:37:49.528Z,59.50
2018-04-09T02:40:18.629Z,59.98
2018-04-09T02:42:46.972Z,59.69
2018-04-09T02:45:15.588Z,60.10
2018-04-09T02:47:43.932Z,59.78
2018-04-09T02:50:13.025Z,60.08
2018-04-09T02:52:41.393Z,59.90
2018-04-09T02:55:09.815Z,59.84
2018-04-09T02:57:38.949Z,59.51
2018-04-09T03:00:07.294Z,59.26
2018-04-09T03:02:36.411Z,59.80
2018-04-09T03:05:04.757Z,59.42
2018-04-09T03:07:33.781Z,60.36
2018-04-09T03:10:02.155Z,60.82
2018-04-09T03:12:31.304Z,61.28
2018-04-09T03:14:59.659Z,60.42
2018-04-09T03:17:27.988Z,60.58
2018-04-09T03:19:56.328Z,60.79
2018-04-09T03:22:24.707Z,60.42
2018-04-09T03:24:53.049Z,59.83
2018-04-09T03:27:22.144Z,60.06
2018-04-09T03:29:51.537Z,60.05
2018-04-09T03:32:20.633Z,60.85
2018-04-09T03:34:48.949Z,61.01
2018-04-09T03:37:17.323Z,61.12
2018-04-09T03:39:45.652Z,61.73
2018-04-09T03:42:13.957Z,61.32
2018-04-09T03:44:43.078Z,61.25
2018-04-09T03:47:11.383Z,61.23
2018-04-09T03:49:39.720Z,61.05
2018-04-09T03:52:08.440Z,61.17
2018-04-09T03:54:36.784Z,60.89
2018-04-09T03:57:05.122Z,61.09
2018-04-09T03:59:33.472Z,61.11
2018-04-09T04:02:01.803Z,61.67
2018-04-09T04:04:30.111Z,61.76
2018-04-09T04:06:58.466Z,61.22
2018-04-09T04:09:26.795Z,61.33
2018-04-09T04:11:55.125Z,62.00
2018-04-09T04:14:23.747Z,62.55
2018-04-09T04:17:09.669Z,62.74
2018-04-09T04:19:55.625Z,62.90
2018-04-09T04:22:23.976Z,62.60
2018-04-09T04:24:52.319Z,63.10
2018-04-09T04:27:20.688Z,62.68
2018-04-09T04:29:49.036Z,62.82
2018-04-09T04:32:17.356Z,62.56
2018-04-09T04:34:45.900Z,62.80
2018-04-09T04:37:14.267Z,62.59
2018-04-09T04:39:42.599Z,62.72
2018-04-09T04:42:11.778Z,62.53
2018-04-09T04:44:40.130Z,61.76
2018-04-09T04:47:08.457Z,61.75
2018-04-09T04:49:37.596Z,61.51
2018-04-09T04:52:05.962Z,61.67
2018-04-09T04:54:34.331Z,61.76
2018-04-09T04:57:03.383Z,61.66
2018-04-09T04:59:31.730Z,61.67
2018-04-09T05:02:00.077Z,61.35
2018-04-09T05:04:29.208Z,61.26
2018-04-09T05:06:57.560Z,60.95
2018-04-09T05:09:25.961Z,61.43
2018-04-09T05:11:54.399Z,61.10
2018-04-09T05:14:22.748Z,61.41
2018-04-09T05:16:51.090Z,61.59
2018-04-09T05:19:19.755Z,61.17
2018-04-09T05:21:49.133Z,60.74
2018-04-09T05:24:17.481Z,60.31
2018-04-09T05:26:45.817Z,59.85
2018-04-09T05:29:14.159Z,60.37
2018-04-09T05:31:42.496Z,59.75
2018-04-09T05:34:10.886Z,60.36
2018-04-09T05:36:39.202Z,60.46
2018-04-09T05:39:07.558Z,60.84
2018-04-09T05:41:36.364Z,59.90
2018-04-09T05:44:04.714Z,58.85
2018-04-09T05:46:33.045Z,58.93
2018-04-09T05:49:01.391Z,59.22
2018-04-09T05:51:29.739Z,59.27
2018-04-09T05:53:58.053Z,58.83
2018-04-09T05:56:26.392Z,58.39
2018-04-09T05:58:54.717Z,58.25
2018-04-09T06:01:23.060Z,58.23
2018-04-09T06:03:51.652Z,58.14
2018-04-09T06:06:19.985Z,57.57
2018-04-09T06:08:49.068Z,57.33
2018-04-09T06:11:18.188Z,56.99
2018-04-09T06:13:47.262Z,56.94
2018-04-09T06:16:15.688Z,55.89
2018-04-09T06:18:44.033Z,55.45
2018-04-09T06:21:13.171Z,54.82
2018-04-09T06:23:41.608Z,54.58
2018-04-09T06:26:10.386Z,54.00
2018-04-09T06:28:38.706Z,54.26
2018-04-09T06:31:07.062Z,54.72
2018-04-09T06:33:36.192Z,54.51
2018-04-09T06:36:04.578Z,54.13
2018-04-09T06:38:32.953Z,53.81
2018-04-09T06:41:01.328Z,53.11
2018-04-09T06:43:29.686Z,53.56
2018-04-09T06:45:58.005Z,53.06
2018-04-09T06:48:26.481Z,53.15
2018-04-09T06:50:54.817Z,52.57
2018-04-09T06:53:23.132Z,53.01
2018-04-09T06:55:51.503Z,52.12
2018-04-09T06:58:19.845Z,52.45
2018-04-09T07:00:48.196Z,52.34
2018-04-09T07:03:16.549Z,52.00
2018-04-09T07:05:44.897Z,51.49
2018-04-09T07:08:13.241Z,51.63
2018-04-09T07:10:41.692Z,51.26
2018-04-09T07:13:10.013Z,50.52
2018-04-09T07:15:38.348Z,50.19
2018-04-09T07:18:06.702Z,50.12
2018-04-09T07:20:35.040Z,49.42
2018-04-09T07:23:04.195Z,49.84
2018-04-09T07:25:32.569Z,50.44
2018-04-09T07:28:00.893Z,49.63
2018-04-09T07:30:29.207Z,49.29
2018-04-09T07:32:58.049Z,50.14
2018-04-09T07:35:26.385Z,49.66
2018-04-09T07:37:54.870Z,49.93
2018-04-09T07:40:23.217Z,49.87
2018-04-09T07:42:51.581Z,49.31
2018-04-09T07:45:19.922Z,47.95
2018-04-09T07:47:48.328Z,47.24
2018-04-09T07:50:16.804Z,46.27
2018-04-09T07:52:45.143Z,44.89
2018-04-09T07:55:13.984Z,45.71
2018-04-09T07:57:42.343Z,45.81
2018-04-09T08:00:10.711Z,44.10
2018-04-09T08:02:39.082Z,42.10
2018-04-09T08:05:07.423Z,39.61
2018-04-09T08:07:35.753Z,38.03
2018-04-09T08:10:04.148Z,37.30
2018-04-09T08:12:32.464Z,35.82
2018-04-09T08:15:00.783Z,34.19
2018-04-09T08:17:29.418Z,32.93
2018-04-09T08:19:58.523Z,32.04
2018-04-09T08:22:26.845Z,31.87
2018-04-09T08:24:55.210Z,31.78
2018-04-09T08:27:23.542Z,30.48
2018-04-09T08:29:51.893Z,28.90
2018-04-09T08:32:21.004Z,28.96
2018-04-09T08:34:49.446Z,30.65
2018-04-09T08:37:17.836Z,30.21
2018-04-09T08:39:46.238Z,28.59
2018-04-09T08:42:14.541Z,27.43
2018-04-09T08:44:43.644Z,26.00
2018-04-09T08:47:12.805Z,25.20
2018-04-09T08:49:41.171Z,24.29
2018-04-09T08:52:09.494Z,24.41
2018-04-09T08:54:38.647Z,22.91
2018-04-09T08:57:06.991Z,23.27
2018-04-09T08:59:35.374Z,22.40
2018-04-09T09:02:04.348Z,23.09
2018-04-09T09:04:33.455Z,24.51
2018-04-09T09:07:01.800Z,22.16
2018-04-09T09:09:30.156Z,21.12
2018-04-09T09:11:58.516Z,20.72
2018-04-09T09:14:26.852Z,19.60
2018-04-09T09:16:55.977Z,20.49
2018-04-09T09:19:24.287Z,21.80
2018-04-09T09:21:52.618Z,20.21
2018-04-09T09:24:21.308Z,20.22
2018-04-09T09:26:49.918Z,19.09
2018-04-09T09:29:18.300Z,18.28
2018-04-09T09:31:46.666Z,17.28
2018-04-09T09:34:15.050Z,17.37
2018-04-09T09:36:43.376Z,16.66
2018-04-09T09:39:11.746Z,15.79
2018-04-09T09:41:40.100Z,16.01
2018-04-09T09:44:09.366Z,16.55
2018-04-09T09:46:37.819Z,17.07
2018-04-09T09:49:06.179Z,17.66
2018-04-09T09:51:34.511Z,17.09
2018-04-09T09:54:02.877Z,15.67
2018-04-09T09:56:31.203Z,17.37
2018-04-09T09:58:59.540Z,17.67
2018-04-09T10:01:28.668Z,16.92
2018-04-09T10:03:56.992Z,15.69
2018-04-09T10:06:26.255Z,14.33
2018-04-09T10:08:54.978Z,14.62
2018-04-09T10:11:23.319Z,15.16
2018-04-09T10:13:51.645Z,15.71
2018-04-09T10:16:20.790Z,14.52
2018-04-09T10:18:49.143Z,14.22
2018-04-09T10:21:17.471Z,13.82
2018-04-09T10:23:45.840Z,13.78
2018-04-09T10:26:14.159Z,13.82
2018-04-09T10:28:43.771Z,13.34
2018-04-09T10:31:13.351Z,12.61
2018-04-09T10:33:41.687Z,13.27
2018-04-09T10:36:10.033Z,13.66
2018-04-09T10:38:39.155Z,14.20
2018-04-09T10:41:07.502Z,13.86
2018-04-09T10:43:36.597Z,12.87
2018-04-09T10:46:04.979Z,14.08
2018-04-09T10:48:34.113Z,13.96
2018-04-09T10:51:02.495Z,14.38
2018-04-09T10:53:31.207Z,13.32
2018-04-09T10:55:59.565Z,12.78
2018-04-09T10:58:27.989Z,12.58
2018-04-09T11:00:56.352Z,13.28
2018-04-09T11:03:24.674Z,14.33
2018-04-09T11:05:53.053Z,15.31
2018-04-09T11:08:21.414Z,16.58
2018-04-09T11:10:49.745Z,16.14
2018-04-09T11:13:18.071Z,15.99
2018-04-09T11:15:47.237Z,14.67
2018-04-09T11:18:15.569Z,13.39
2018-04-09T11:20:43.916Z,14.02
2018-04-09T11:23:12.275Z,14.24
2018-04-09T11:25:40.610Z,14.40
2018-04-09T11:28:09.803Z,16.46
2018-04-09T11:30:38.168Z,17.39
2018-04-09T11:33:06.522Z,18.18
2018-04-09T11:35:34.867Z,17.49
2018-04-09T11:38:03.262Z,15.67
2018-04-09T11:40:31.586Z,15.22
2018-04-09T11:43:00.682Z,16.45
2018-04-09T11:45:29.787Z,18.56
2018-04-09T11:47:58.877Z,18.34
2018-04-09T11:50:27.983Z,18.25
2018-04-09T11:52:57.115Z,18.41
2018-04-09T11:55:25.441Z,17.87
2018-04-09T12:00:22.139Z,16.09
2018-04-09T12:02:50.493Z,15.72
2018-04-09T12:05:18.797Z,13.96
2018-04-09T12:07:47.125Z,15.52
2018-04-09T12:10:15.463Z,15.11
2018-04-09T12:12:43.796Z,14.21
2018-04-09T12:15:12.917Z,14.03
2018-04-09T12:17:41.262Z,14.14
2018-04-09T12:20:10.359Z,13.69
2018-04-09T12:22:39.852Z,13.92
2018-04-09T12:25:08.175Z,14.49
2018-04-09T12:27:37.246Z,14.99
2018-04-09T12:30:06.359Z,14.86
2018-04-09T12:32:35.458Z,15.00
2018-04-09T12:35:03.793Z,16.44
2018-04-09T12:37:32.173Z,17.07
2018-04-09T12:40:00.579Z,18.08
2018-04-09T12:42:28.916Z,19.36
2018-04-09T12:44:57.448Z,19.62
2018-04-09T12:47:26.542Z,20.68
2018-04-09T12:49:55.630Z,19.91
2018-04-09T12:52:24.748Z,20.14
2018-04-09T12:54:53.071Z,21.35
2018-04-09T12:57:21.400Z,22.09
2018-04-09T12:59:49.756Z,22.34
2018-04-09T13:02:18.857Z,22.08
2018-04-09T13:04:47.981Z,22.85
2018-04-09T13:07:16.751Z,22.49
2018-04-09T13:09:45.077Z,22.19
2018-04-09T13:12:13.447Z,23.03
2018-04-09T13:14:41.801Z,22.71
2018-04-09T13:17:10.160Z,23.18
2018-04-09T13:19:39.261Z,23.47
2018-04-09T13:22:08.360Z,23.30
2018-04-09T13:24:37.458Z,23.16
2018-04-09T13:27:05.941Z,23.15
2018-04-09T13:29:34.554Z,23.24
2018-04-09T13:32:02.895Z,23.19
2018-04-09T13:34:32.044Z,23.43
2018-04-09T13:37:00.414Z,23.12
2018-04-09T13:39:28.745Z,22.74
2018-04-09T13:41:57.863Z,22.16
2018-04-09T13:44:26.304Z,22.15
2018-04-09T13:46:55.430Z,22.21
2018-04-09T13:49:23.768Z,21.49
2018-04-09T13:51:52.477Z,21.19
2018-04-09T13:54:21.561Z,21.74
2018-04-09T13:56:49.938Z,22.84
2018-04-09T13:59:19.070Z,23.66
2018-04-09T14:01:48.193Z,23.37
2018-04-09T14:04:16.528Z,22.97
2018-04-09T14:06:44.957Z,24.20
2018-04-09T14:09:13.323Z,24.93
2018-04-09T14:11:41.674Z,25.22
2018-04-09T14:14:11.057Z,25.81
2018-04-09T14:16:39.420Z,25.63
2018-04-09T14:19:07.749Z,25.65
2018-04-09T14:21:36.092Z,25.34
2018-04-09T14:24:04.422Z,25.83
2018-04-09T14:26:32.755Z,26.34
2018-04-09T14:29:01.901Z,26.78
2018-04-09T14:31:30.283Z,26.91
2018-04-09T14:33:58.605Z,26.73
2018-04-09T14:36:27.033Z,27.22
2018-04-09T14:38:55.375Z,27.37
2018-04-09T14:41:24.490Z,27.68
2018-04-09T14:43:53.663Z,27.71
2018-04-09T14:46:22.027Z,27.92
2018-04-09T14:48:51.178Z,28.27
2018-04-09T14:51:19.603Z,28.11
2018-04-09T14:53:47.951Z,28.09
2018-04-09T14:56:16.262Z,27.96
2018-04-09T14:58:44.708Z,27.67
2018-04-09T15:01:13.025Z,27.82
2018-04-09T15:03:41.353Z,27.81
2018-04-09T15:06:09.736Z,28.28
2018-04-09T15:08:38.080Z,27.46
2018-04-09T15:11:06.443Z,27.71
2018-04-09T15:13:34.807Z,26.94
2018-04-09T15:16:03.169Z,27.30
2018-04-09T15:18:31.514Z,26.24
2018-04-09T15:21:00.268Z,26.36
2018-04-09T15:23:28.631Z,26.81
2018-04-09T15:25:56.968Z,27.19
2018-04-09T15:28:26.140Z,27.28
2018-04-09T15:30:54.718Z,27.46
2018-04-09T15:33:23.844Z,27.64
2018-04-09T15:35:52.312Z,28.34
2018-04-09T15:38:20.682Z,27.95
2018-04-09T15:40:49.788Z,27.86
2018-04-09T15:43:18.208Z,28.21
2018-04-09T15:45:46.544Z,28.40
2018-04-09T15:48:15.623Z,28.27
2018-04-09T15:50:43.983Z,28.36
2018-04-09T15:53:12.322Z,28.24
2018-04-09T15:55:40.631Z,28.31
2018-04-09T15:58:09.033Z,28.48
2018-04-09T16:00:38.264Z,28.45
2018-04-09T16:03:06.587Z,28.57
2018-04-09T16:05:35.409Z,28.32
2018-04-09T16:08:03.758Z,28.45
2018-04-09T16:10:32.092Z,28.33
2018-04-09T16:13:00.470Z,28.54
2018-04-09T16:15:28.827Z,29.13
2018-04-09T16:18:05.760Z,29.40
2018-04-09T16:20:34.084Z,30.57
2018-04-09T16:23:02.425Z,31.20
2018-04-09T16:25:30.835Z,32.04
2018-04-09T16:27:59.212Z,31.75
2018-04-09T16:30:28.303Z,32.08
2018-04-09T16:32:56.766Z,32.52
2018-04-09T16:35:25.120Z,32.84
2018-04-09T16:37:53.495Z,32.49
2018-04-09T16:40:21.901Z,32.53
2018-04-09T16:42:50.228Z,32.30
2018-04-09T16:45:19.340Z,32.43
2018-04-09T16:47:47.894Z,32.65
2018-04-09T16:50:16.990Z,33.15
2018-04-09T16:52:46.230Z,33.32
2018-04-09T16:55:14.595Z,33.42
2018-04-09T16:57:43.189Z,33.27
2018-04-09T17:00:11.496Z,33.26
2018-04-09T17:02:39.843Z,33.82
2018-04-09T17:05:08.164Z,34.32
2018-04-09T17:07:36.469Z,34.16
2018-04-09T17:10:05.781Z,34.47
2018-04-09T17:12:34.136Z,34.71
2018-04-09T17:15:02.520Z,34.72
2018-04-09T17:17:30.874Z,34.87
2018-04-09T17:19:59.237Z,35.34
2018-04-09T17:22:27.568Z,35.19
2018-04-09T17:24:56.698Z,34.87
2018-04-09T17:27:25.017Z,34.89
2018-04-09T17:29:53.393Z,34.83
2018-04-09T17:32:22.320Z,34.77
2018-04-09T17:34:51.000Z,35.08
2018-04-09T17:37:19.351Z,35.38
2018-04-09T17:39:47.710Z,35.49
2018-04-09T17:42:16.048Z,35.60
2018-04-09T17:44:44.365Z,36.09
2018-04-09T17:47:12.758Z,35.94
2018-04-09T17:49:41.094Z,35.90
2018-04-09T17:52:09.423Z,35.92
2018-04-09T17:54:38.092Z,35.96
2018-04-09T17:57:06.448Z,36.18
2018-04-09T17:59:34.796Z,36.06
2018-04-09T18:02:03.182Z,36.13
2018-04-09T18:04:32.263Z,36.34
2018-04-09T18:07:01.386Z,37.01
2018-04-09T18:09:29.732Z,37.24
2018-04-09T18:11:58.062Z,37.24
2018-04-09T18:14:26.415Z,37.66
2018-04-09T18:16:55.256Z,37.62
2018-04-09T18:19:23.616Z,37.74
2018-04-09T18:21:51.966Z,37.86
2018-04-09T18:24:20.336Z,38.14
2018-04-09T18:26:49.518Z,38.27
2018-04-09T18:29:17.901Z,38.95
2018-04-09T18:31:46.375Z,38.92
2018-04-09T18:34:15.515Z,38.97
2018-04-09T18:36:43.950Z,39.07
2018-04-09T18:39:13.192Z,39.29
2018-04-09T18:41:41.572Z,39.37
2018-04-09T18:44:09.969Z,39.88
2018-04-09T18:46:38.348Z,40.29
2018-04-09T18:49:06.734Z,41.18
2018-04-09T18:51:35.948Z,41.37
2018-04-09T18:54:04.334Z,41.71
2018-04-09T18:56:32.725Z,41.54
2018-04-09T18:59:01.101Z,41.73
2018-04-09T19:01:29.581Z,42.25
2018-04-09T19:03:58.699Z,42.22
2018-04-09T19:06:27.831Z,42.24
2018-04-09T19:08:56.186Z,42.70
2018-04-09T19:11:24.530Z,42.58
2018-04-09T19:13:52.874Z,42.78
2018-04-09T19:16:21.289Z,42.90
2018-04-09T19:18:49.641Z,43.18
2018-04-09T19:21:18.017Z,43.51
2018-04-09T19:23:46.508Z,43.82
2018-04-09T19:26:14.850Z,44.76
2018-04-09T19:28:43.225Z,45.17
2018-04-09T19:31:11.614Z,46.05
2018-04-09T19:33:39.971Z,46.94
2018-04-09T19:36:14.091Z,48.15
2018-04-09T19:38:47.843Z,48.43
2018-04-09T19:41:16.317Z,49.54
2018-04-09T19:43:44.664Z,49.61
2018-04-09T19:46:13.018Z,49.84
2018-04-09T19:48:41.420Z,50.42
2018-04-09T19:51:09.876Z,51.09
2018-04-09T19:53:38.970Z,51.66
2018-04-09T19:56:08.096Z,51.82
2018-04-09T19:58:36.428Z,51.21
2018-04-09T20:01:04.768Z,51.46
2018-04-09T20:03:33.443Z,51.71
2018-04-09T20:06:01.846Z,51.69
2018-04-09T20:08:30.237Z,51.83
2018-04-09T20:10:58.667Z,52.14
2018-04-09T20:13:27.011Z,52.15
2018-04-09T20:15:55.374Z,51.99
2018-04-09T20:18:23.728Z,52.07
2018-04-09T20:20:52.059Z,52.31
2018-04-09T20:23:20.439Z,51.95
2018-04-09T20:25:49.256Z,51.99
2018-04-09T20:28:17.627Z,52.64
2018-04-09T20:30:46.723Z,53.03
2018-04-09T20:33:15.067Z,52.76
2018-04-09T20:35:43.403Z,52.91
2018-04-09T20:38:12.020Z,53.32
2018-04-09T20:40:40.402Z,52.99
2018-04-09T20:43:08.771Z,53.11
2018-04-09T20:45:37.090Z,53.51
2018-04-09T20:48:06.443Z,53.40
2018-04-09T20:50:35.238Z,53.09
2018-04-09T20:53:03.595Z,53.41
2018-04-09T20:55:31.982Z,53.45
2018-04-09T20:58:00.317Z,53.48
2018-04-09T21:00:29.438Z,53.27
2018-04-09T21:02:57.799Z,53.60
2018-04-09T21:05:26.135Z,53.83
2018-04-09T21:07:54.479Z,53.66
2018-04-09T21:10:23.127Z,53.98
2018-04-09T21:12:51.469Z,54.40
2018-04-09T21:15:19.881Z,54.30
2018-04-09T21:17:48.258Z,54.27
2018-04-09T21:20:16.606Z,53.88
2018-04-09T21:22:45.746Z,53.83
2018-04-09T21:25:14.904Z,54.01
2018-04-09T21:27:43.247Z,54.33
2018-04-09T21:30:11.606Z,53.74
2018-04-09T21:32:40.203Z,54.78
2018-04-09T21:35:09.335Z,54.53
2018-04-09T21:37:37.844Z,54.79
2018-04-09T21:40:06.638Z,54.58
2018-04-09T21:42:35.024Z,54.98
2018-04-09T21:45:03.404Z,54.49
2018-04-09T21:47:31.800Z,54.53
2018-04-09T21:50:00.901Z,54.78
2018-04-09T21:52:30.040Z,54.83
2018-04-09T21:54:58.589Z,55.04
2018-04-09T21:57:26.921Z,55.47
2018-04-09T21:59:55.250Z,55.55
2018-04-09T22:02:23.636Z,55.75
2018-04-09T22:04:51.970Z,55.32
2018-04-09T22:07:20.378Z,55.69
2018-04-09T22:09:48.771Z,55.93
2018-04-09T22:12:17.883Z,55.67
2018-04-09T22:14:46.367Z,56.49
2018-04-09T22:17:14.807Z,56.65
2018-04-09T22:19:43.952Z,56.06
2018-04-09T22:22:12.312Z,56.65
2018-04-09T22:24:40.692Z,56.09
2018-04-09T22:27:09.921Z,56.80
2018-04-09T22:29:38.298Z,56.21
2018-04-09T22:32:07.479Z,56.77
2018-04-09T22:34:35.838Z,56.77
2018-04-09T22:37:04.173Z,56.79
2018-04-09T22:39:32.619Z,56.45
2018-04-09T22:42:00.976Z,56.32
2018-04-09T22:44:29.355Z,56.50
2018-04-09T22:46:58.497Z,56.65
2018-04-09T22:49:26.887Z,56.35
2018-04-09T22:51:56.064Z,56.35
2018-04-09T22:54:24.469Z,56.75
2018-04-09T22:56:52.855Z,56.95
2018-04-09T22:59:21.189Z,56.80
2018-04-09T23:01:49.883Z,56.43
2018-04-09T23:04:18.195Z,56.46
2018-04-09T23:06:46.527Z,56.47
2018-04-09T23:09:14.936Z,56.15
2018-04-09T23:11:43.269Z,56.33
2018-04-09T23:14:12.422Z,56.22
2018-04-09T23:16:40.769Z,56.03
2018-04-09T23:19:09.076Z,56.39
2018-04-09T23:21:37.435Z,56.72
2018-04-09T23:24:05.869Z,57.00
2018-04-09T23:26:35.236Z,56.69
2018-04-09T23:29:03.563Z,56.69
2018-04-09T23:31:31.927Z,56.61
2018-04-09T23:34:01.058Z,56.67
2018-04-09T23:36:29.391Z,56.79
2018-04-09T23:38:57.769Z,56.67
2018-04-09T23:41:26.144Z,56.64
2018-04-09T23:43:55.245Z,57.30
2018-04-09T23:46:23.691Z,56.81
2018-04-09T23:48:51.994Z,56.63
2018-04-09T23:51:20.324Z,56.96
2018-04-09T23:53:48.698Z,56.56
2018-04-09T23:56:17.064Z,57.01
2018-04-09T23:58:45.402Z,57.34
